Time;durP1;ratioP1;P1;durP2;ratioP2;P2;SDS_P1;SDS_P2;PMS_P1;PMS_P2;Temp;Humidity;BMP_temperature;BMP_pressure;BME280_temperature;BME280_humidity;BME280_pressure;Samples;Min_cycle;Max_cycle;Signal;HPM_P1;HPM_P2
2021/09/13 00:00:21;;;;;;;;;;;;;;;21.63;56.19;100645.69;2083480;28;973;-62
2021/09/13 00:01:21;;;;;;;;;;;;;;;21.64;55.74;100650.16;2091116;28;917;-62
2021/09/13 00:02:22;;;;;;;;;;;;;;;21.63;55.75;100643.00;2091331;28;752;-62
2021/09/13 00:03:22;;;;;;;;;;;;;;;21.61;55.93;100653.78;2083568;28;831;-62
2021/09/13 00:04:22;;;;;;;;;;;;;;;21.61;55.51;100650.25;2083564;28;1064;-62
2021/09/13 00:05:22;;;;;;;;;;;;;;;21.64;55.58;100657.34;2083501;28;823;-62
2021/09/13 00:06:22;;;;;;;;;;;;;;;21.61;55.65;100653.78;2083512;28;831;-62
2021/09/13 00:07:23;;;;;;;;;;;;;;;21.66;55.84;100650.97;2083520;28;753;-62
2021/09/13 00:08:23;;;;;;;;;;;;;;;21.64;55.53;100658.25;2083238;28;874;-63
2021/09/13 00:09:23;;;;;;;;;;;;;;;21.62;55.82;100665.50;2083383;28;780;-62
2021/09/13 00:10:23;;;;;;;;;;;;;;;21.59;55.59;100665.59;2083273;28;814;-62
2021/09/13 00:11:23;;;;;;;;;;;;;;;21.61;56.17;100666.41;2083373;28;815;-61
2021/09/13 00:12:24;;;;;;;;;;;;;;;21.62;55.70;100676.28;2075625;28;1280;-62
2021/09/13 00:13:24;;;;;;;;;;;;;;;21.63;56.06;100672.66;2075242;28;1973;-62
2021/09/13 00:14:24;;;;;;;;;;;;;;;21.61;55.82;100682.59;2075214;28;810;-62
2021/09/13 00:15:24;;;;;;;;;;;;;;;21.62;56.25;100681.69;2075188;28;1421;-62
2021/09/13 00:16:25;;;;;;;;;;;;;;;21.61;55.95;100680.75;2075424;28;772;-62
2021/09/13 00:17:25;;;;;;;;;;;;;;;21.62;56.03;100682.53;2075200;28;993;-62
2021/09/13 00:18:25;;;;;;;;;;;;;;;21.60;56.13;100676.28;2075138;28;885;-62
2021/09/13 00:19:25;;;;;;;;;;;;;;;21.58;55.77;100686.25;2075275;28;970;-62
2021/09/13 00:20:25;;;;;;;;;;;;;;;21.60;55.80;100683.53;2075202;28;846;-62
2021/09/13 00:21:25;;;;;;;;;;;;;;;21.61;56.45;100693.38;2075248;28;847;-62
2021/09/13 00:22:26;;;;;;;;;;;;;;;21.61;55.39;100683.44;2075284;28;993;-62
2021/09/13 00:23:26;;;;;;;;;;;;;;;21.62;55.05;100687.06;2074920;28;1242;-62
2021/09/13 00:24:26;;;;;;;;;;;;;;;21.60;55.66;100692.47;2075252;28;882;-62
2021/09/13 00:25:26;;;;;;;;;;;;;;;21.59;56.50;100693.41;2075278;28;788;-62
2021/09/13 00:26:26;;;;;;;;;;;;;;;21.60;56.50;100697.00;2075204;28;1032;-63
2021/09/13 00:27:26;;;;;;;;;;;;;;;21.61;56.03;100696.06;2075200;28;770;-62
2021/09/13 00:28:27;;;;;;;;;;;;;;;21.59;55.73;100703.34;2075128;28;869;-63
2021/09/13 00:29:27;;;;;;;;;;;;;;;21.61;55.90;100706.84;2075243;28;851;-62
2021/09/13 00:30:27;;;;;;;;;;;;;;;21.57;55.91;100711.47;2075229;28;977;-62
2021/09/13 00:31:27;;;;;;;;;;;;;;;21.57;55.92;100706.06;2074256;28;1045;-63
2021/09/13 00:32:27;;;;;;;;;;;;;;;21.60;56.06;100710.47;2074651;28;911;-62
2021/09/13 00:33:28;;;;;;;;;;;;;;;21.58;56.19;100717.75;2074898;28;1999;-63
2021/09/13 00:34:29;;;;;;;;;;;;;;;21.58;56.14;100706.97;2074633;28;978;-63
2021/09/13 00:35:29;;;;;;;;;;;;;;;21.61;55.93;100706.84;2075132;28;850;-62
2021/09/13 00:36:29;;;;;;;;;;;;;;;21.57;56.00;100716.84;2075246;28;804;-63
2021/09/13 00:37:29;;;;;;;;;;;;;;;21.58;56.17;100705.13;2074808;28;922;-62
2021/09/13 00:38:29;;;;;;;;;;;;;;;21.58;55.56;100717.75;2075204;28;973;-63
2021/09/13 00:39:30;;;;;;;;;;;;;;;21.57;55.97;100722.25;2075127;28;784;-62
2021/09/13 00:40:30;;;;;;;;;;;;;;;21.59;56.11;100714.13;2077706;28;1518;-62
2021/09/13 00:41:30;;;;;;;;;;;;;;;21.60;55.31;100723.97;2083283;28;1470;-62
2021/09/13 00:42:32;;;;;;;;;;;;;;;21.57;56.32;100727.63;2083314;28;866;-63
2021/09/13 00:43:33;;;;;;;;;;;;;;;21.62;55.44;100735.59;2083282;28;816;-62
2021/09/13 00:44:33;;;;;;;;;;;;;;;21.57;54.98;100732.16;2083324;28;977;-63
2021/09/13 00:45:33;;;;;;;;;;;;;;;21.56;55.69;100725.88;2083268;28;737;-63
2021/09/13 00:46:33;;;;;;;;;;;;;;;21.56;55.86;100731.25;2083162;28;1004;-63
2021/09/13 00:47:33;;;;;;;;;;;;;;;21.56;55.38;100733.97;2083228;28;984;-62
2021/09/13 00:48:33;;;;;;;;;;;;;;;21.56;55.38;100728.56;2083265;28;1040;-62
2021/09/13 00:49:34;;;;;;;;;;;;;;;21.56;55.55;100728.56;2083261;28;655;-63
2021/09/13 00:50:34;;;;;;;;;;;;;;;21.57;56.31;100738.41;2083218;28;1036;-62
2021/09/13 00:51:34;;;;;;;;;;;;;;;21.59;55.48;100730.28;2083201;28;993;-63
2021/09/13 00:52:35;;;;;;;;;;;;;;;21.57;55.58;100740.25;2083033;28;1052;-62
2021/09/13 00:53:35;;;;;;;;;;;;;;;21.57;55.94;100740.25;2082951;28;1965;-63
2021/09/13 00:54:35;;;;;;;;;;;;;;;21.55;56.10;100744.81;2083234;28;771;-62
2021/09/13 00:55:35;;;;;;;;;;;;;;;21.56;55.72;100743.88;2083227;28;898;-62
2021/09/13 00:56:36;;;;;;;;;;;;;;;21.58;56.23;100745.56;2083192;28;1044;-62
2021/09/13 00:57:37;;;;;;;;;;;;;;;21.59;56.01;100741.06;2083133;28;1041;-63
2021/09/13 00:58:37;;;;;;;;;;;;;;;21.58;55.32;100750.09;2083078;28;786;-62
2021/09/13 00:59:37;;;;;;;;;;;;;;;21.56;55.69;100752.81;2083240;28;791;-63
2021/09/13 01:00:37;;;;;;;;;;;;;;;21.58;55.81;100750.09;2083456;28;993;-62
2021/09/13 01:01:38;;;;;;;;;;;;;;;21.58;55.59;100742.88;2083058;28;819;-62
2021/09/13 01:02:38;;;;;;;;;;;;;;;21.59;55.05;100752.72;2083149;28;890;-62
2021/09/13 01:03:38;;;;;;;;;;;;;;;21.58;56.03;100750.09;2083128;28;771;-63
2021/09/13 01:04:38;;;;;;;;;;;;;;;21.57;55.71;100754.59;2083199;28;859;-63
2021/09/13 01:05:38;;;;;;;;;;;;;;;21.56;55.68;100760.91;2083141;28;843;-63
2021/09/13 01:06:39;;;;;;;;;;;;;;;21.57;55.58;100767.19;2083109;28;1028;-62
2021/09/13 01:07:39;;;;;;;;;;;;;;;21.58;56.11;100760.88;2083188;28;842;-62
2021/09/13 01:08:39;;;;;;;;;;;;;;;21.58;55.88;100761.72;2082914;28;925;-63
2021/09/13 01:09:39;;;;;;;;;;;;;;;21.57;55.35;100770.75;2083107;28;772;-63
2021/09/13 01:10:40;;;;;;;;;;;;;;;21.55;55.42;100759.16;2082981;28;930;-62
2021/09/13 01:11:40;;;;;;;;;;;;;;;21.56;55.54;100763.59;2082964;28;1014;-62
2021/09/13 01:12:41;;;;;;;;;;;;;;;21.58;55.03;100761.72;2083058;28;905;-62
2021/09/13 01:13:41;;;;;;;;;;;;;;;21.58;55.91;100760.88;2083045;28;1906;-62
2021/09/13 01:14:41;;;;;;;;;;;;;;;21.57;55.71;100759.97;2079939;28;1366;-62
2021/09/13 01:15:41;;;;;;;;;;;;;;;21.56;55.24;100770.84;2074975;28;779;-62
2021/09/13 01:16:42;;;;;;;;;;;;;;;21.57;55.45;100769.91;2075006;28;763;-63
2021/09/13 01:17:42;;;;;;;;;;;;;;;21.58;55.79;100774.34;2074754;28;1685;-62
2021/09/13 01:18:42;;;;;;;;;;;;;;;21.56;55.24;100777.09;2075028;28;795;-63
2021/09/13 01:19:42;;;;;;;;;;;;;;;21.56;55.32;100770.84;2074941;28;901;-62
2021/09/13 01:20:42;;;;;;;;;;;;;;;21.56;55.34;100778.91;2074864;28;973;-63
2021/09/13 01:21:43;;;;;;;;;;;;;;;21.55;55.98;100774.47;2074945;28;1319;-62
2021/09/13 01:22:46;;;;;;;;;;;;;;;21.57;55.24;100768.06;2074730;28;1295;-63
2021/09/13 01:23:46;;;;;;;;;;;;;;;21.57;55.42;100769.91;2074674;28;858;-62
2021/09/13 01:24:46;;;;;;;;;;;;;;;21.55;55.84;100761.84;2074989;28;965;-62
2021/09/13 01:25:46;;;;;;;;;;;;;;;21.55;55.68;100769.94;2075050;28;768;-63
2021/09/13 01:26:46;;;;;;;;;;;;;;;21.55;56.01;100772.63;2074645;28;842;-62
2021/09/13 01:27:46;;;;;;;;;;;;;;;21.57;54.94;100773.44;2074877;28;1017;-62
2021/09/13 01:28:46;;;;;;;;;;;;;;;21.55;55.19;100775.31;2074964;28;1040;-63
2021/09/13 01:29:47;;;;;;;;;;;;;;;21.55;55.17;100777.16;2074601;28;1089;-62
2021/09/13 01:30:47;;;;;;;;;;;;;;;21.55;55.26;100777.16;2075004;28;989;-63
2021/09/13 01:31:47;;;;;;;;;;;;;;;21.57;55.91;100780.69;2074901;28;1005;-62
2021/09/13 01:32:47;;;;;;;;;;;;;;;21.53;55.57;100777.19;2074912;28;831;-63
2021/09/13 01:33:47;;;;;;;;;;;;;;;21.54;55.95;100778.09;2074481;28;1883;-63
2021/09/13 01:34:47;;;;;;;;;;;;;;;21.55;55.91;100774.47;2074603;28;803;-63
2021/09/13 01:35:49;;;;;;;;;;;;;;;21.55;55.85;100778.03;2074906;28;1105;-62
2021/09/13 01:36:50;;;;;;;;;;;;;;;21.57;55.15;100775.28;2075023;28;1116;-62
2021/09/13 01:37:50;;;;;;;;;;;;;;;21.53;56.46;100773.66;2074707;28;787;-63
2021/09/13 01:38:50;;;;;;;;;;;;;;;21.57;55.57;100769.91;2074891;28;808;-62
2021/09/13 01:39:50;;;;;;;;;;;;;;;21.54;55.57;100781.66;2074665;28;863;-62
2021/09/13 01:40:51;;;;;;;;;;;;;;;21.55;55.68;100780.72;2079865;28;1549;-62
2021/09/13 01:41:51;;;;;;;;;;;;;;;21.56;55.56;100784.31;2083081;28;1181;-63
2021/09/13 01:42:51;;;;;;;;;;;;;;;21.53;56.18;100785.28;2083109;28;922;-63
2021/09/13 01:43:51;;;;;;;;;;;;;;;21.55;55.96;100782.56;2082607;28;973;-62
2021/09/13 01:44:51;;;;;;;;;;;;;;;21.55;55.76;100790.63;2082972;28;769;-62
2021/09/13 01:45:52;;;;;;;;;;;;;;;21.56;55.76;100795.09;2082785;28;965;-62
2021/09/13 01:46:52;;;;;;;;;;;;;;;21.54;55.97;100795.13;2084533;28;1389;-62
2021/09/13 01:47:52;;;;;;;;;;;;;;;21.55;56.10;100793.34;2084383;28;795;-62
2021/09/13 01:48:52;;;;;;;;;;;;;;;21.55;55.55;100801.41;2084536;28;910;-63
2021/09/13 01:49:52;;;;;;;;;;;;;;;21.55;55.86;100796.88;2084323;28;1036;-63
2021/09/13 01:50:52;;;;;;;;;;;;;;;21.55;55.24;100799.59;2084352;28;775;-62
2021/09/13 01:51:52;;;;;;;;;;;;;;;21.54;55.82;100797.81;2084577;28;1020;-63
2021/09/13 01:52:53;;;;;;;;;;;;;;;21.56;55.87;100800.47;2084410;28;1024;-63
2021/09/13 01:53:53;;;;;;;;;;;;;;;21.52;55.97;100797.00;2084396;28;1954;-62
2021/09/13 01:54:53;;;;;;;;;;;;;;;21.53;56.08;100795.22;2084544;28;887;-62
2021/09/13 01:55:53;;;;;;;;;;;;;;;21.54;55.97;100797.81;2084410;28;1079;-63
2021/09/13 01:56:53;;;;;;;;;;;;;;;21.52;55.75;100798.84;2084402;28;1044;-62
2021/09/13 01:57:53;;;;;;;;;;;;;;;21.53;55.53;100795.22;2084244;28;827;-62
2021/09/13 01:58:54;;;;;;;;;;;;;;;21.53;55.98;100803.28;2084276;28;1016;-62
2021/09/13 01:59:54;;;;;;;;;;;;;;;21.49;55.36;100794.44;2084260;28;692;-62
2021/09/13 02:00:54;;;;;;;;;;;;;;;21.54;55.04;100797.81;2084356;28;748;-63
2021/09/13 02:01:54;;;;;;;;;;;;;;;21.53;55.41;100801.47;2084341;28;809;-63
2021/09/13 02:02:54;;;;;;;;;;;;;;;21.53;55.49;100798.75;2084458;28;1204;-62
2021/09/13 02:03:54;;;;;;;;;;;;;;;21.52;55.72;100802.41;2084431;28;755;-63
2021/09/13 02:04:55;;;;;;;;;;;;;;;21.51;56.11;100813.25;2082166;28;1276;-62
2021/09/13 02:05:55;;;;;;;;;;;;;;;21.51;55.50;100810.56;2075635;28;1150;-63
2021/09/13 02:06:55;;;;;;;;;;;;;;;21.52;56.46;100815.00;2075725;28;1017;-62
2021/09/13 02:07:55;;;;;;;;;;;;;;;21.52;55.51;100815.00;2076109;28;891;-62
2021/09/13 02:08:56;;;;;;;;;;;;;;;21.55;55.75;100815.75;2076236;28;977;-63
2021/09/13 02:09:56;;;;;;;;;;;;;;;21.52;55.68;100815.00;2076018;28;998;-63
2021/09/13 02:10:56;;;;;;;;;;;;;;;21.53;54.84;100819.47;2075986;28;779;-63
2021/09/13 02:11:56;;;;;;;;;;;;;;;21.50;56.26;100819.56;2076114;28;1009;-63
2021/09/13 02:12:56;;;;;;;;;;;;;;;21.51;55.54;100819.50;2076093;28;748;-63
2021/09/13 02:13:56;;;;;;;;;;;;;;;21.53;55.27;100825.72;2076179;28;1890;-63
2021/09/13 02:14:56;;;;;;;;;;;;;;;21.51;55.51;100818.63;2076219;28;821;-63
2021/09/13 02:15:57;;;;;;;;;;;;;;;21.50;55.20;100822.28;2076038;28;1208;-63
2021/09/13 02:16:57;;;;;;;;;;;;;;;21.50;55.55;100823.13;2076265;28;913;-63
2021/09/13 02:17:57;;;;;;;;;;;;;;;21.50;55.88;100830.34;2075675;28;1033;-62
2021/09/13 02:18:57;;;;;;;;;;;;;;;21.52;55.88;100825.78;2075460;28;776;-62
2021/09/13 02:19:57;;;;;;;;;;;;;;;21.50;56.05;100831.22;2076011;28;918;-62
2021/09/13 02:20:58;;;;;;;;;;;;;;;21.50;55.35;100830.34;2076083;28;962;-63
2021/09/13 02:21:58;;;;;;;;;;;;;;;21.50;55.47;100828.53;2075434;28;799;-63
2021/09/13 02:22:58;;;;;;;;;;;;;;;21.51;55.57;100835.69;2075250;28;1294;-63
2021/09/13 02:23:58;;;;;;;;;;;;;;;21.52;55.43;100841.97;2075905;28;1005;-63
2021/09/13 02:24:58;;;;;;;;;;;;;;;21.50;55.47;100830.34;2076132;28;855;-62
2021/09/13 02:25:59;;;;;;;;;;;;;;;21.52;55.36;100841.97;2075892;28;926;-63
2021/09/13 02:26:59;;;;;;;;;;;;;;;21.53;55.70;100847.28;2075928;28;1032;-65
2021/09/13 02:27:59;;;;;;;;;;;;;;;21.58;55.72;100841.75;2076019;28;1002;-68
2021/09/13 02:28:59;;;;;;;;;;;;;;;21.59;55.26;100848.88;2075991;28;795;-67
2021/09/13 02:29:59;;;;;;;;;;;;;;;21.59;55.75;100848.88;2076053;28;722;-66
2021/09/13 02:31:00;;;;;;;;;;;;;;;21.58;55.56;100842.59;2075888;28;1005;-65
2021/09/13 02:32:00;;;;;;;;;;;;;;;21.56;55.67;100852.56;2076071;28;973;-63
2021/09/13 02:33:00;;;;;;;;;;;;;;;21.54;55.41;100851.72;2076120;28;830;-62
2021/09/13 02:34:01;;;;;;;;;;;;;;;21.55;55.86;100852.63;2075977;28;1977;-62
2021/09/13 02:35:04;;;;;;;;;;;;;;;21.53;56.00;100852.66;2075618;28;768;-62
2021/09/13 02:36:05;;;;;;;;;;;;;;;21.56;55.43;100854.38;2075953;28;854;-62
2021/09/13 02:37:05;;;;;;;;;;;;;;;21.54;55.59;100857.13;2076003;28;900;-62
2021/09/13 02:38:05;;;;;;;;;;;;;;;21.52;56.39;100855.44;2075865;28;855;-62
2021/09/13 02:39:06;;;;;;;;;;;;;;;21.53;56.40;100854.50;2075751;28;933;-62
2021/09/13 02:40:07;;;;;;;;;;;;;;;21.50;55.51;100860.88;2075861;28;776;-62
2021/09/13 02:41:07;;;;;;;;;;;;;;;21.50;56.17;100860.00;2083001;28;1926;-62
2021/09/13 02:42:07;;;;;;;;;;;;;;;21.51;56.17;100867.16;2084216;28;1060;-62
2021/09/13 02:43:07;;;;;;;;;;;;;;;21.51;55.52;100867.16;2083928;28;1012;-62
2021/09/13 02:44:07;;;;;;;;;;;;;;;21.52;55.69;100866.22;2084069;28;756;-62
2021/09/13 02:45:08;;;;;;;;;;;;;;;21.51;55.49;100868.03;2083968;28;997;-62
2021/09/13 02:46:08;;;;;;;;;;;;;;;21.52;55.46;100868.91;2083909;28;1259;-62
2021/09/13 02:47:09;;;;;;;;;;;;;;;21.49;55.53;100872.59;2084098;28;756;-62
2021/09/13 02:48:09;;;;;;;;;;;;;;;21.51;55.84;100865.31;2084035;28;1012;-62
2021/09/13 02:49:09;;;;;;;;;;;;;;;21.50;55.59;100882.44;2083778;28;833;-62
2021/09/13 02:50:09;;;;;;;;;;;;;;;21.51;55.20;100878.78;2084119;28;842;-62
2021/09/13 02:51:10;;;;;;;;;;;;;;;21.48;55.84;100885.19;2083921;28;799;-62
2021/09/13 02:52:10;;;;;;;;;;;;;;;21.50;56.28;100833.06;2084184;28;902;-62
2021/09/13 02:53:10;;;;;;;;;;;;;;;21.48;56.14;100825.91;2084031;28;898;-62
2021/09/13 02:54:11;;;;;;;;;;;;;;;21.52;55.83;100831.19;2083991;28;1957;-62
2021/09/13 02:55:12;;;;;;;;;;;;;;;21.53;56.18;100832.94;2084109;28;907;-62
2021/09/13 02:56:12;;;;;;;;;;;;;;;21.51;56.19;100835.69;2083964;28;1024;-62
2021/09/13 02:57:12;;;;;;;;;;;;;;;21.52;55.88;100828.47;2083840;28;904;-62
2021/09/13 02:58:12;;;;;;;;;;;;;;;21.55;56.22;100833.75;2083975;28;788;-62
2021/09/13 02:59:12;;;;;;;;;;;;;;;21.51;55.81;100853.69;2074733;28;811;-62
2021/09/13 03:00:12;;;;;;;;;;;;;;;21.54;56.01;100947.91;2075300;28;891;-62
2021/09/13 03:01:13;;;;;;;;;;;;;;;21.52;55.66;100921.00;2083714;28;882;-62
2021/09/13 03:02:13;;;;;;;;;;;;;;;21.48;55.71;100906.75;2081855;28;1233;-62
2021/09/13 03:03:13;;;;;;;;;;;;;;;21.50;55.97;100903.13;2075777;28;791;-62
2021/09/13 03:04:13;;;;;;;;;;;;;;;21.48;55.67;100909.44;2075795;28;915;-62
2021/09/13 03:05:13;;;;;;;;;;;;;;;21.49;55.97;100907.63;2075819;28;867;-62
2021/09/13 03:06:14;;;;;;;;;;;;;;;21.47;56.27;100915.78;2075529;28;898;-62
2021/09/13 03:07:14;;;;;;;;;;;;;;;21.50;55.22;100911.22;2075776;28;1099;-62
2021/09/13 03:08:14;;;;;;;;;;;;;;;21.52;55.28;100917.44;2075890;28;842;-62
2021/09/13 03:09:14;;;;;;;;;;;;;;;21.50;55.21;100909.38;2075545;28;860;-62
2021/09/13 03:10:15;;;;;;;;;;;;;;;21.50;56.44;100914.78;2075913;28;743;-62
2021/09/13 03:11:15;;;;;;;;;;;;;;;21.50;55.93;100922.00;2075812;28;861;-62
2021/09/13 03:12:15;;;;;;;;;;;;;;;21.50;55.92;100935.47;2075466;28;807;-62
2021/09/13 03:13:15;;;;;;;;;;;;;;;21.49;55.47;100931.88;2075702;28;1898;-62
2021/09/13 03:14:15;;;;;;;;;;;;;;;21.47;55.60;100931.09;2075869;28;862;-62
2021/09/13 03:15:16;;;;;;;;;;;;;;;21.49;55.25;100926.50;2075325;28;969;-62
2021/09/13 03:16:16;;;;;;;;;;;;;;;21.46;55.80;100924.78;2075783;28;949;-62
2021/09/13 03:17:16;;;;;;;;;;;;;;;21.49;55.88;100934.56;2075789;28;981;-61
2021/09/13 03:18:16;;;;;;;;;;;;;;;21.48;55.35;100924.75;2075845;28;977;-62
2021/09/13 03:19:19;;;;;;;;;;;;;;;21.48;55.46;100925.63;2075720;28;776;-62
2021/09/13 03:20:20;;;;;;;;;;;;;;;21.48;55.25;100931.00;2075540;28;839;-62
2021/09/13 03:21:20;;;;;;;;;;;;;;;21.48;55.25;100925.63;2075616;28;834;-62
2021/09/13 03:22:20;;;;;;;;;;;;;;;21.47;56.36;100923.00;2075709;28;1297;-62
2021/09/13 03:23:20;;;;;;;;;;;;;;;21.48;55.56;100906.75;2075629;28;1134;-62
2021/09/13 03:24:20;;;;;;;;;;;;;;;21.47;56.04;100894.22;2075778;28;1036;-62
2021/09/13 03:25:23;;;;;;;;;;;;;;;21.50;56.23;100895.03;2074998;28;1559;-62
2021/09/13 03:26:23;;;;;;;;;;;;;;;21.48;56.21;100895.13;2075056;28;846;-62
2021/09/13 03:27:23;;;;;;;;;;;;;;;21.46;56.21;100897.84;2075750;28;850;-62
2021/09/13 03:28:23;;;;;;;;;;;;;;;21.50;55.78;100900.44;2075614;28;1056;-62
2021/09/13 03:29:23;;;;;;;;;;;;;;;21.48;55.59;100897.81;2075433;28;1409;-62
2021/09/13 03:30:24;;;;;;;;;;;;;;;21.48;56.03;100898.66;2075685;28;1027;-62
2021/09/13 03:31:24;;;;;;;;;;;;;;;21.50;55.90;100890.50;2075404;28;1102;-62
2021/09/13 03:32:24;;;;;;;;;;;;;;;21.48;56.26;100895.97;2075680;28;842;-62
2021/09/13 03:33:24;;;;;;;;;;;;;;;21.48;55.80;100916.69;2075498;28;1922;-62
2021/09/13 03:34:24;;;;;;;;;;;;;;;21.48;56.56;100895.97;2075697;28;981;-62
2021/09/13 03:35:25;;;;;;;;;;;;;;;21.45;55.77;100896.09;2075510;28;977;-62
2021/09/13 03:36:25;;;;;;;;;;;;;;;21.47;55.57;100888.81;2075542;28;914;-62
2021/09/13 03:37:25;;;;;;;;;;;;;;;21.47;55.72;100891.53;2075563;28;925;-62
2021/09/13 03:38:25;;;;;;;;;;;;;;;21.47;55.66;100888.81;2075643;28;986;-62
2021/09/13 03:39:26;;;;;;;;;;;;;;;21.47;56.15;100887.97;2075185;28;835;-62
2021/09/13 03:40:26;;;;;;;;;;;;;;;21.46;55.72;100887.06;2077679;28;1467;-62
2021/09/13 03:41:26;;;;;;;;;;;;;;;21.46;56.29;100892.47;2083693;28;965;-62
2021/09/13 03:42:26;;;;;;;;;;;;;;;21.46;56.28;100888.91;2074682;28;1300;-62
2021/09/13 03:43:27;;;;;;;;;;;;;;;21.48;56.25;100887.88;2074872;28;944;-62
2021/09/13 03:44:27;;;;;;;;;;;;;;;21.45;55.53;100890.69;2083799;28;857;-62
2021/09/13 03:45:27;;;;;;;;;;;;;;;21.47;56.16;100896.91;2083384;28;969;-62
2021/09/13 03:46:27;;;;;;;;;;;;;;;21.47;55.78;100896.91;2083689;28;784;-62
2021/09/13 03:47:27;;;;;;;;;;;;;;;21.47;56.16;100893.34;2083201;28;839;-62
2021/09/13 03:48:27;;;;;;;;;;;;;;;21.47;55.83;100905.00;2083624;28;1009;-62
2021/09/13 03:49:28;;;;;;;;;;;;;;;21.47;55.71;100899.59;2083693;28;700;-62
2021/09/13 03:50:28;;;;;;;;;;;;;;;21.46;56.43;100895.16;2083667;28;1032;-62
2021/09/13 03:51:28;;;;;;;;;;;;;;;21.46;55.75;100892.47;2083708;28;795;-62
2021/09/13 03:52:28;;;;;;;;;;;;;;;21.43;56.09;100894.41;2083679;28;891;-62
2021/09/13 03:53:28;;;;;;;;;;;;;;;21.44;56.30;100893.47;2074673;28;1886;-62
2021/09/13 03:54:28;;;;;;;;;;;;;;;21.46;55.66;100900.53;2074987;28;973;-62
2021/09/13 03:55:29;;;;;;;;;;;;;;;21.46;55.55;100897.84;2083523;28;822;-62
2021/09/13 03:56:29;;;;;;;;;;;;;;;21.46;55.88;100899.69;2083428;28;855;-62
2021/09/13 03:57:29;;;;;;;;;;;;;;;21.45;55.72;100897.91;2083639;28;985;-62
2021/09/13 03:58:29;;;;;;;;;;;;;;;21.45;56.20;100901.47;2083564;28;989;-62
2021/09/13 03:59:30;;;;;;;;;;;;;;;21.47;56.26;100905.00;2083541;28;874;-62
2021/09/13 04:00:30;;;;;;;;;;;;;;;21.49;55.33;100907.63;2083679;28;874;-62
2021/09/13 04:01:31;;;;;;;;;;;;;;;21.50;55.92;100940.84;2083227;28;1247;-62
2021/09/13 04:02:31;;;;;;;;;;;;;;;21.48;56.41;100905.91;2083567;28;791;-62
2021/09/13 04:03:41;;;;;;;;;;;;;;;21.88;56.54;100896.34;2083408;28;830;-62
2021/09/13 04:04:44;;;;;;;;;;;;;;;21.98;57.17;100899.56;2083637;28;826;-62
2021/09/13 04:05:48;;;;;;;;;;;;;;;22.00;58.58;100913.88;2083524;28;808;-62
2021/09/13 04:06:51;;;;;;;;;;;;;;;22.02;58.74;100919.22;2083521;28;889;-62
2021/09/13 04:10:15;;;;;;;;;;;;;;;22.21;58.71;100916.69;2083692;28;1018;-62
2021/09/13 04:11:25;;;;;;;;;;;;;;;22.31;59.01;100941.47;2083546;28;808;-62
2021/09/13 04:12:25;;;;;;;;;;;;;;;22.37;58.69;100960.13;2083365;28;936;-62
2021/09/13 04:13:25;;;;;;;;;;;;;;;22.43;57.73;100959.00;2083393;28;1894;-62
2021/09/13 04:14:26;;;;;;;;;;;;;;;22.47;57.61;100960.66;2083501;28;978;-62
2021/09/13 04:15:26;;;;;;;;;;;;;;;22.54;57.07;100969.41;2083234;28;863;-62
2021/09/13 04:16:27;;;;;;;;;;;;;;;22.59;57.02;100962.88;2083528;28;1032;-62
2021/09/13 04:17:27;;;;;;;;;;;;;;;22.61;56.63;100954.75;2083470;28;981;-62
2021/09/13 04:18:27;;;;;;;;;;;;;;;22.67;56.36;100940.09;2083549;28;952;-62
2021/09/13 04:19:27;;;;;;;;;;;;;;;22.67;55.71;100938.25;2083428;28;749;-63
2021/09/13 04:20:27;;;;;;;;;;;;;;;22.70;55.49;100939.97;2083444;28;827;-62
2021/09/13 04:21:27;;;;;;;;;;;;;;;22.70;55.42;100940.84;2083245;28;985;-63
2021/09/13 04:22:28;;;;;;;;;;;;;;;22.72;54.44;100971.38;2083473;28;787;-62
2021/09/13 04:23:28;;;;;;;;;;;;;;;22.74;53.70;100976.72;2083054;28;1063;-62
2021/09/13 04:24:28;;;;;;;;;;;;;;;22.72;53.49;100978.59;2083314;28;942;-62
2021/09/13 04:25:28;;;;;;;;;;;;;;;22.71;52.58;100991.22;2083297;28;1017;-62
2021/09/13 04:26:28;;;;;;;;;;;;;;;22.69;51.96;100995.78;2083314;28;795;-62
2021/09/13 04:27:30;;;;;;;;;;;;;;;22.68;51.45;100990.47;2083287;28;938;-63
2021/09/13 04:28:30;;;;;;;;;;;;;;;22.68;51.26;100987.75;2083448;28;858;-62
2021/09/13 04:29:30;;;;;;;;;;;;;;;22.65;50.59;101003.16;2083194;28;1302;-62
2021/09/13 04:30:31;;;;;;;;;;;;;;;22.69;49.92;101005.72;2083186;28;1028;-62
2021/09/13 04:31:31;;;;;;;;;;;;;;;22.66;49.67;101006.75;2083357;28;781;-63
2021/09/13 04:32:31;;;;;;;;;;;;;;;22.65;49.16;101011.25;2083445;28;831;-62
2021/09/13 04:33:31;;;;;;;;;;;;;;;22.67;49.22;101013.00;2083262;28;1910;-62
2021/09/13 04:34:31;;;;;;;;;;;;;;;22.66;48.78;101012.13;2083324;28;850;-62
2021/09/13 04:35:32;;;;;;;;;;;;;;;22.69;48.50;101019.22;2083179;28;897;-62
2021/09/13 04:36:32;;;;;;;;;;;;;;;22.70;49.12;101021.84;2083402;28;824;-62
2021/09/13 04:37:32;;;;;;;;;;;;;;;22.69;48.78;101011.13;2083176;28;875;-62
2021/09/13 04:38:32;;;;;;;;;;;;;;;22.69;48.64;101017.38;2083346;28;901;-62
2021/09/13 04:39:33;;;;;;;;;;;;;;;22.70;48.18;101015.59;2083271;28;787;-62
2021/09/13 04:40:33;;;;;;;;;;;;;;;22.70;48.68;101007.47;2082962;28;1506;-62
2021/09/13 04:41:33;;;;;;;;;;;;;;;22.70;48.79;101015.59;2083029;28;1334;-62
2021/09/13 04:42:33;;;;;;;;;;;;;;;22.70;48.15;101012.88;2083310;28;862;-62
2021/09/13 04:43:33;;;;;;;;;;;;;;;22.69;47.99;101014.69;2083293;28;1029;-62
2021/09/13 04:44:33;;;;;;;;;;;;;;;22.65;48.07;101013.94;2083288;28;997;-62
2021/09/13 04:45:33;;;;;;;;;;;;;;;22.68;48.30;101017.47;2083184;28;847;-62
2021/09/13 04:46:34;;;;;;;;;;;;;;;22.69;48.25;101016.53;2074415;28;1315;-62
2021/09/13 04:47:34;;;;;;;;;;;;;;;22.66;48.94;101020.25;2074238;28;831;-62
2021/09/13 04:48:34;;;;;;;;;;;;;;;22.66;49.53;101012.13;2082825;28;883;-62
2021/09/13 04:49:34;;;;;;;;;;;;;;;22.69;49.53;101017.38;2083283;28;902;-63
2021/09/13 04:50:34;;;;;;;;;;;;;;;22.73;49.95;101015.47;2083205;28;768;-62
2021/09/13 04:51:36;;;;;;;;;;;;;;;22.75;49.59;101016.28;2083125;28;1131;-62
2021/09/13 04:52:36;;;;;;;;;;;;;;;22.74;49.64;101019.94;2083296;28;787;-62
2021/09/13 04:53:36;;;;;;;;;;;;;;;22.77;50.11;101023.38;2083127;28;1917;-62
2021/09/13 04:54:36;;;;;;;;;;;;;;;22.78;49.97;101026.97;2083247;28;747;-62
2021/09/13 04:55:37;;;;;;;;;;;;;;;22.79;50.57;101015.22;2083191;28;898;-62
2021/09/13 04:56:38;;;;;;;;;;;;;;;22.80;50.17;101016.97;2083077;28;837;-62
2021/09/13 04:57:38;;;;;;;;;;;;;;;22.83;50.09;101010.56;2083198;28;882;-63
2021/09/13 04:58:38;;;;;;;;;;;;;;;22.81;50.66;101010.63;2083262;28;819;-62
2021/09/13 04:59:38;;;;;;;;;;;;;;;22.84;50.63;101013.22;2083136;28;839;-63
2021/09/13 05:00:38;;;;;;;;;;;;;;;22.85;50.18;101006.88;2083181;28;848;-62
2021/09/13 05:01:39;;;;;;;;;;;;;;;22.84;50.48;101010.53;2083112;28;732;-62
2021/09/13 05:02:39;;;;;;;;;;;;;;;22.85;50.64;101004.19;2083235;28;799;-62
2021/09/13 05:03:39;;;;;;;;;;;;;;;22.87;50.80;101010.41;2083213;28;839;-62
2021/09/13 05:04:39;;;;;;;;;;;;;;;22.88;50.84;101004.06;2083182;28;1020;-62
2021/09/13 05:05:39;;;;;;;;;;;;;;;22.89;50.83;101008.50;2083125;28;1010;-63
2021/09/13 05:06:39;;;;;;;;;;;;;;;22.90;50.48;101010.28;2083168;28;1008;-63
2021/09/13 05:07:40;;;;;;;;;;;;;;;22.93;50.58;100999.34;2082931;28;1001;-62
2021/09/13 05:08:40;;;;;;;;;;;;;;;22.92;50.47;101007.50;2083201;28;795;-62
2021/09/13 05:09:40;;;;;;;;;;;;;;;22.90;51.60;101004.88;2074175;28;1401;-62
2021/09/13 05:10:41;;;;;;;;;;;;;;;22.91;51.00;101003.03;2074413;28;854;-62
2021/09/13 05:11:42;;;;;;;;;;;;;;;22.95;51.80;101007.38;2082819;28;1533;-62
2021/09/13 05:12:42;;;;;;;;;;;;;;;22.94;51.07;101003.81;2083170;28;814;-62
2021/09/13 05:13:43;;;;;;;;;;;;;;;22.93;50.94;101002.03;2083048;28;1890;-62
2021/09/13 05:14:43;;;;;;;;;;;;;;;22.93;51.55;100993.94;2083194;28;768;-62
2021/09/13 05:15:43;;;;;;;;;;;;;;;22.94;51.44;100990.31;2083057;28;785;-62
2021/09/13 05:16:43;;;;;;;;;;;;;;;22.95;51.13;100994.75;2083127;28;868;-62
2021/09/13 05:17:44;;;;;;;;;;;;;;;22.96;51.21;101001.03;2082917;28;895;-63
2021/09/13 05:18:45;;;;;;;;;;;;;;;22.95;51.93;101002.88;2082975;28;787;-63